CheckWX is a tool to help pilots better visualize weather data.  It is not intended as a substitute for an official pre-flight weather briefing.

05:57:53 UTC

KCMI TAF
University of Illinois-Willard Airport
Champaign/Urbana, Illinois, USA
KCMI 260522Z 2606/2706 02014G22KT 5SM BR VCSH OVC007 FM261000 02014G23KT 1 1/2SM -SN OVC005 FM261700 35017G25KT 2SM -SN OVC011 FM261900 34018KT 6SM -SN OVC012 FM270000 33014KT P6SM BKN022

Feb-26@
06:00 UTC

Feb-26 @ 06:00 UTC

Feb-26@
10:00 UTC

Feb-26 @ 10:00 UTC

KCMI 260522Z 2606/2706 02014G22KT 5SM BR VCSH OVC007
Wind
  • 020° at 14 KTS
  • {Gusting to 22 KTS
Conditions
Mist
Cloud Levels
  • Overcast at 700' AGL

Feb-26@
10:00 UTC

Feb-26 @ 10:00 UTC

Feb-26@
17:00 UTC

Feb-26 @ 17:00 UTC

FM261000 02014G23KT 1 1/2SM -SN OVC005

From

From Standard forecast or significant change

Wind
  • 020° at 14 KTS
  • {Gusting to 23 KTS
Conditions
Light Snow
Cloud Levels
  • Overcast at 500' AGL

Feb-26@
17:00 UTC

Feb-26 @ 17:00 UTC

Feb-26@
19:00 UTC

Feb-26 @ 19:00 UTC

FM261700 35017G25KT 2SM -SN OVC011

From

From Standard forecast or significant change

Wind
  • 350° at 17 KTS
  • {Gusting to 25 KTS
Conditions
Light Snow
Cloud Levels
  • Overcast at 1,100' AGL

Feb-26@
19:00 UTC

Feb-26 @ 19:00 UTC

Feb-27@
00:00 UTC

Feb-27 @ 00:00 UTC

FM261900 34018KT 6SM -SN OVC012

From

From Standard forecast or significant change

Wind
  • 340° at 18 KTS
Conditions
Light Snow
Cloud Levels
  • Overcast at 1,200' AGL

Feb-27@
00:00 UTC

Feb-27 @ 00:00 UTC

Feb-27@
06:00 UTC

Feb-27 @ 06:00 UTC

FM270000 33014KT P6SM BKN022

From

From Standard forecast or significant change

Wind
  • 330° at 14 KTS
Cloud Levels
  • Broken at 2,200' AGL